Time;durP1;ratioP1;P1;durP2;ratioP2;P2;SDS_P1;SDS_P2;PMS_P1;PMS_P2;Temp;Humidity;BMP_temperature;BMP_pressure;BME280_temperature;BME280_humidity;BME280_pressure;Samples;Min_cycle;Max_cycle;Signal;HPM_P1;HPM_P2
2022/01/29 00:01:04;;;;;;;;;;;3.90;99.90;;;;;;5134628;28;19930;-87
2022/01/29 00:03:31;;;;;;;;;;;3.80;99.90;;;;;;5060969;28;19925;-88
2022/01/29 00:05:59;;;;;;;;;;;3.90;99.90;;;;;;4999755;28;19926;-88
2022/01/29 00:08:26;;;;;;;;;;;3.90;99.90;;;;;;4886564;28;19926;-82
2022/01/29 00:10:56;;;;;;;;;;;3.90;99.90;;;;;;4586842;30;19946;-88
2022/01/29 00:17:42;;;;;;;;;;;3.90;99.90;;;;;;5179234;27;19930;-89
2022/01/29 00:20:09;;;;;;;;;;;3.90;99.90;;;;;;5123178;27;19924;-88
2022/01/29 00:22:36;;;;;;;;;;;3.90;99.90;;;;;;5123281;27;19928;-87
2022/01/29 00:25:03;;;;;;;;;;;3.90;99.90;;;;;;5124729;27;19930;-87
2022/01/29 00:27:34;;;;;;;;;;;3.90;99.90;;;;;;5062118;28;19934;-91
2022/01/29 00:30:05;;;;;;;;;;;3.90;99.90;;;;;;4857550;29;19937;-90
2022/01/29 00:32:32;;;;;;;;;;;3.90;99.90;;;;;;4600583;30;19926;-87
2022/01/29 00:39:41;;;;;;;;;;;3.80;99.90;;;;;;5185269;27;19925;-85
2022/01/29 00:42:08;;;;;;;;;;;3.80;99.90;;;;;;5120915;27;19924;-89
2022/01/29 00:44:35;;;;;;;;;;;3.80;99.90;;;;;;5081879;28;19928;-84
2022/01/29 00:47:03;;;;;;;;;;;3.80;99.90;;;;;;5072859;28;19947;-86
2022/01/29 00:49:29;;;;;;;;;;;3.80;99.90;;;;;;5056049;28;19933;-86
2022/01/29 00:51:56;;;;;;;;;;;3.80;99.90;;;;;;4899578;29;19929;-86
2022/01/29 00:54:23;;;;;;;;;;;3.70;99.90;;;;;;4763375;29;19933;-84
2022/01/29 01:01:31;;;;;;;;;;;3.70;99.90;;;;;;5169053;27;19939;-80
2022/01/29 01:03:57;;;;;;;;;;;3.70;99.90;;;;;;5112649;27;19931;-82
2022/01/29 01:06:24;;;;;;;;;;;3.60;99.90;;;;;;5090265;28;19924;-82
2022/01/29 01:08:50;;;;;;;;;;;3.70;99.90;;;;;;5052738;28;19933;-80
2022/01/29 01:11:17;;;;;;;;;;;3.60;99.90;;;;;;4939128;28;19928;-85
2022/01/29 01:13:44;;;;;;;;;;;3.60;99.90;;;;;;4735589;29;19939;-85
2022/01/29 01:16:10;;;;;;;;;;;3.60;99.90;;;;;;4543385;30;19937;-86
2022/01/29 01:23:42;;;;;;;;;;;3.50;99.90;;;;;;5191176;27;19914;-86
2022/01/29 01:26:08;;;;;;;;;;;3.50;99.90;;;;;;5166541;27;19923;-80
2022/01/29 01:28:35;;;;;;;;;;;3.50;99.90;;;;;;5135541;28;19939;-83
2022/01/29 01:31:02;;;;;;;;;;;3.50;99.90;;;;;;5049474;28;19926;-83
2022/01/29 01:33:29;;;;;;;;;;;3.50;99.90;;;;;;4915225;29;19929;-86
2022/01/29 01:36:02;;;;;;;;;;;3.50;99.90;;;;;;4737125;29;19932;-86
2022/01/29 01:38:36;;;;;;;;;;;3.50;99.90;;;;;;4449150;31;19938;-88
2022/01/29 01:46:04;;;;;;;;;;;3.50;99.90;;;;;;5189316;27;19930;-83
2022/01/29 01:48:31;;;;;;;;;;;3.50;99.90;;;;;;5143601;27;19924;-83
2022/01/29 01:50:58;;;;;;;;;;;3.50;99.90;;;;;;5122253;27;19939;-87
2022/01/29 01:53:25;;;;;;;;;;;3.50;99.90;;;;;;5103622;28;19932;-86
2022/01/29 01:55:52;;;;;;;;;;;3.50;99.90;;;;;;4980891;28;19927;-83
2022/01/29 01:58:18;;;;;;;;;;;3.50;99.90;;;;;;4842276;29;19930;-81
2022/01/29 02:00:45;;;;;;;;;;;3.50;99.90;;;;;;4596910;30;19935;-80
2022/01/29 02:08:16;;;;;;;;;;;3.50;99.90;;;;;;5175309;27;19927;-83
2022/01/29 02:10:45;;;;;;;;;;;3.50;99.90;;;;;;5136009;27;19923;-81
2022/01/29 02:13:12;;;;;;;;;;;3.60;99.90;;;;;;5115569;27;19931;-82
2022/01/29 02:15:38;;;;;;;;;;;3.60;99.90;;;;;;5109066;28;19940;-79
2022/01/29 02:18:05;;;;;;;;;;;3.50;99.90;;;;;;4987746;28;19927;-83
2022/01/29 02:20:32;;;;;;;;;;;3.60;99.90;;;;;;4836828;29;19930;-80
2022/01/29 02:23:00;;;;;;;;;;;3.60;99.90;;;;;;4638237;30;19940;-82
2022/01/29 02:29:48;;;;;;;;;;;3.60;99.90;;;;;;5173552;27;19926;-81
2022/01/29 02:32:15;;;;;;;;;;;3.50;99.90;;;;;;5099564;28;19931;-80
2022/01/29 02:34:43;;;;;;;;;;;3.60;99.90;;;;;;5081835;28;19924;-80
2022/01/29 02:37:10;;;;;;;;;;;3.50;99.90;;;;;;5047151;28;19932;-82
2022/01/29 02:39:36;;;;;;;;;;;3.50;99.90;;;;;;4958058;28;19935;-80
2022/01/29 02:42:03;;;;;;;;;;;3.50;99.90;;;;;;4837010;29;19929;-80
2022/01/29 02:44:31;;;;;;;;;;;3.60;99.90;;;;;;4639124;30;19941;-79
2022/01/29 02:52:02;;;;;;;;;;;3.40;99.90;;;;;;5161694;27;19926;-83
2022/01/29 02:54:29;;;;;;;;;;;3.40;99.90;;;;;;5115643;27;19931;-81
2022/01/29 02:56:56;;;;;;;;;;;3.40;99.90;;;;;;5095124;28;19924;-82
2022/01/29 02:59:23;;;;;;;;;;;3.30;99.90;;;;;;5110336;27;19924;-81
2022/01/29 03:01:49;;;;;;;;;;;3.30;99.90;;;;;;5067389;28;19926;-85
2022/01/29 03:04:16;;;;;;;;;;;3.20;99.90;;;;;;4923117;28;19936;-83
2022/01/29 03:06:42;;;;;;;;;;;3.20;99.90;;;;;;4693450;29;19933;-80
2022/01/29 03:14:15;;;;;;;;;;;3.10;99.90;;;;;;5173999;27;19926;-83
2022/01/29 03:16:41;;;;;;;;;;;3.10;99.90;;;;;;5135705;27;19996;-83
2022/01/29 03:19:08;;;;;;;;;;;3.10;99.90;;;;;;5103246;28;19938;-79
2022/01/29 03:21:34;;;;;;;;;;;3.10;99.90;;;;;;5078310;28;19924;-81
2022/01/29 03:24:01;;;;;;;;;;;3.10;99.90;;;;;;5052318;28;19937;-79
2022/01/29 03:26:27;;;;;;;;;;;3.10;99.90;;;;;;4919320;28;19929;-79
2022/01/29 03:28:54;;;;;;;;;;;3.00;99.90;;;;;;4806999;29;19939;-79
2022/01/29 03:38:41;;;;;;;;;;;3.10;99.90;;;;;;5178925;27;19926;-81
2022/01/29 03:41:10;;;;;;;;;;;3.00;99.90;;;;;;5140361;27;19924;-79
2022/01/29 03:43:43;;;;;;;;;;;3.00;99.90;;;;;;5117963;27;19937;-81
2022/01/29 03:46:10;;;;;;;;;;;3.00;99.90;;;;;;5126625;27;19931;-80
2022/01/29 03:48:36;;;;;;;;;;;3.00;99.90;;;;;;5103850;28;19924;-82
2022/01/29 03:51:03;;;;;;;;;;;3.00;99.90;;;;;;4994788;28;19935;-82
2022/01/29 03:53:30;;;;;;;;;;;3.00;99.90;;;;;;4854223;29;19935;-83
2022/01/29 03:55:57;;;;;;;;;;;3.00;99.90;;;;;;4648814;29;19935;-81
2022/01/29 04:03:30;;;;;;;;;;;3.00;99.90;;;;;;5160788;27;19925;-85
2022/01/29 04:05:56;;;;;;;;;;;2.90;99.90;;;;;;5124797;27;19931;-83
2022/01/29 04:08:24;;;;;;;;;;;3.00;99.90;;;;;;5137207;28;19931;-87
2022/01/29 04:10:52;;;;;;;;;;;3.00;99.90;;;;;;5092342;28;19927;-84
2022/01/29 04:13:22;;;;;;;;;;;3.00;99.90;;;;;;5028427;28;19938;-87
2022/01/29 04:15:49;;;;;;;;;;;3.10;99.90;;;;;;4827975;29;19938;-81
2022/01/29 04:18:15;;;;;;;;;;;3.10;99.90;;;;;;4620832;30;19935;-83
2022/01/29 04:25:53;;;;;;;;;;;3.00;99.90;;;;;;5174081;27;19926;-85
2022/01/29 04:28:21;;;;;;;;;;;3.00;99.90;;;;;;5119295;27;19923;-82
2022/01/29 04:30:53;;;;;;;;;;;3.00;99.90;;;;;;5124891;28;19924;-83
2022/01/29 04:33:28;;;;;;;;;;;3.00;99.90;;;;;;4990850;28;19932;-82
2022/01/29 04:35:55;;;;;;;;;;;3.00;99.90;;;;;;4921727;28;19943;-86
2022/01/29 04:38:22;;;;;;;;;;;3.00;99.90;;;;;;4726586;29;19934;-86
2022/01/29 04:40:49;;;;;;;;;;;3.00;99.90;;;;;;4428660;31;19939;-80
2022/01/29 04:45:54;;;;;;;;;;;3.00;99.90;;;;;;5175035;27;19926;-80
2022/01/29 04:48:20;;;;;;;;;;;3.10;99.90;;;;;;5136609;27;19930;-79
2022/01/29 04:50:47;;;;;;;;;;;3.00;99.90;;;;;;5123316;27;19927;-80
2022/01/29 04:53:13;;;;;;;;;;;3.10;99.90;;;;;;5054654;28;19925;-80
2022/01/29 04:55:40;;;;;;;;;;;3.10;99.90;;;;;;4980571;28;19935;-85
2022/01/29 04:58:06;;;;;;;;;;;3.20;99.90;;;;;;4890105;28;19929;-80
2022/01/29 05:00:35;;;;;;;;;;;3.10;99.90;;;;;;4674395;29;19941;-80
2022/01/29 05:08:13;;;;;;;;;;;3.10;99.90;;;;;;5173522;27;19926;-80
2022/01/29 05:10:40;;;;;;;;;;;3.20;99.90;;;;;;5136460;27;19923;-82
2022/01/29 05:13:09;;;;;;;;;;;3.20;99.90;;;;;;5098386;28;19939;-81
2022/01/29 05:15:40;;;;;;;;;;;3.20;99.90;;;;;;5100480;28;19931;-80
2022/01/29 05:31:50;;;;;;;;;;;3.20;99.90;;;;;;5170825;27;19926;-82
2022/01/29 05:34:17;;;;;;;;;;;3.20;99.90;;;;;;5124557;27;19924;-78
2022/01/29 05:36:44;;;;;;;;;;;3.20;99.90;;;;;;5121301;27;19930;-81
2022/01/29 05:39:10;;;;;;;;;;;3.20;99.90;;;;;;5092984;28;19932;-80
2022/01/29 05:41:37;;;;;;;;;;;3.20;99.90;;;;;;5011313;28;19934;-84
2022/01/29 05:44:04;;;;;;;;;;;3.20;99.90;;;;;;4854035;29;19938;-83
2022/01/29 05:46:30;;;;;;;;;;;3.20;99.90;;;;;;4643649;30;19940;-83
2022/01/29 05:53:28;;;;;;;;;;;3.30;99.90;;;;;;5173450;27;19926;-83
2022/01/29 05:55:55;;;;;;;;;;;3.20;99.90;;;;;;5118724;27;19930;-82
2022/01/29 05:58:21;;;;;;;;;;;3.20;99.90;;;;;;5129460;27;19927;-81
2022/01/29 06:00:48;;;;;;;;;;;3.30;99.90;;;;;;5092501;27;19925;-78
2022/01/29 06:03:14;;;;;;;;;;;3.20;99.90;;;;;;5045456;28;19926;-81
2022/01/29 06:05:41;;;;;;;;;;;3.20;99.90;;;;;;4877996;29;19929;-81
2022/01/29 06:08:07;;;;;;;;;;;3.20;99.90;;;;;;4685864;29;19941;-82
2022/01/29 06:15:41;;;;;;;;;;;3.30;99.90;;;;;;5179191;27;19926;-80
2022/01/29 06:18:11;;;;;;;;;;;3.30;99.90;;;;;;5099877;27;19923;-80
2022/01/29 06:20:38;;;;;;;;;;;3.30;99.90;;;;;;5089823;28;19924;-82
2022/01/29 06:23:05;;;;;;;;;;;3.30;99.90;;;;;;5047074;28;19932;-84
2022/01/29 06:25:31;;;;;;;;;;;3.30;99.90;;;;;;4976415;28;19950;-82
2022/01/29 06:27:58;;;;;;;;;;;3.30;99.90;;;;;;4837376;29;19936;-81
2022/01/29 06:30:24;;;;;;;;;;;3.30;99.90;;;;;;4717830;29;19933;-83
2022/01/29 06:35:31;;;;;;;;;;;3.30;99.90;;;;;;5176400;27;19942;-80
2022/01/29 06:37:57;;;;;;;;;;;3.30;99.90;;;;;;5140039;27;19923;-80
2022/01/29 06:40:24;;;;;;;;;;;3.30;99.90;;;;;;5140470;27;19931;-80
2022/01/29 06:42:50;;;;;;;;;;;3.30;99.90;;;;;;5099445;28;19924;-83
2022/01/29 06:45:17;;;;;;;;;;;3.30;99.90;;;;;;5008477;28;19927;-84
2022/01/29 06:47:44;;;;;;;;;;;3.30;99.90;;;;;;4901313;29;19928;-83
2022/01/29 06:50:10;;;;;;;;;;;3.30;99.90;;;;;;4701851;29;19940;-83
2022/01/29 06:56:28;;;;;;;;;;;3.30;99.90;;;;;;5174821;27;19925;-81
2022/01/29 06:58:54;;;;;;;;;;;3.40;99.90;;;;;;5131585;27;19947;-81
2022/01/29 07:01:21;;;;;;;;;;;3.30;99.90;;;;;;5099731;28;19932;-80
2022/01/29 07:03:48;;;;;;;;;;;3.30;99.90;;;;;;5035010;28;19933;-80
2022/01/29 07:06:14;;;;;;;;;;;3.30;99.90;;;;;;4971284;28;19943;-80
2022/01/29 07:08:41;;;;;;;;;;;3.40;99.90;;;;;;4853983;29;19935;-80
2022/01/29 07:11:07;;;;;;;;;;;3.40;99.90;;;;;;4777846;29;19931;-80
2022/01/29 07:17:24;;;;;;;;;;;3.40;99.90;;;;;;5176694;27;19926;-79
2022/01/29 07:19:52;;;;;;;;;;;3.50;99.90;;;;;;5133341;27;19931;-80
2022/01/29 07:22:19;;;;;;;;;;;3.50;99.90;;;;;;5100173;28;19933;-81
2022/01/29 07:24:46;;;;;;;;;;;3.50;99.90;;;;;;5035660;28;19925;-79
2022/01/29 07:27:13;;;;;;;;;;;3.50;99.90;;;;;;5009226;28;19926;-80
2022/01/29 07:29:40;;;;;;;;;;;3.50;99.90;;;;;;4896667;28;19930;-85
2022/01/29 07:32:08;;;;;;;;;;;3.50;99.90;;;;;;4673752;30;19933;-82
2022/01/29 07:39:41;;;;;;;;;;;3.60;99.90;;;;;;5179788;27;19937;-79
2022/01/29 07:42:08;;;;;;;;;;;3.60;99.90;;;;;;5102762;28;19924;-81
2022/01/29 07:44:35;;;;;;;;;;;3.60;99.90;;;;;;5092029;28;19934;-83
2022/01/29 07:47:02;;;;;;;;;;;3.60;99.90;;;;;;5038916;28;19928;-81
2022/01/29 07:49:28;;;;;;;;;;;3.60;99.90;;;;;;5000203;28;19932;-81
2022/01/29 07:51:55;;;;;;;;;;;3.60;99.90;;;;;;4798030;29;19930;-81
2022/01/29 07:54:21;;;;;;;;;;;3.60;99.90;;;;;;4637697;30;19949;-78
2022/01/29 08:01:53;;;;;;;;;;;3.70;99.90;;;;;;5147140;27;19927;-84
2022/01/29 08:04:23;;;;;;;;;;;3.70;99.90;;;;;;5099481;28;19939;-79
2022/01/29 08:06:50;;;;;;;;;;;3.70;99.90;;;;;;5109849;27;19931;-81
2022/01/29 08:09:16;;;;;;;;;;;3.70;99.90;;;;;;5089015;28;19932;-80
2022/01/29 08:11:43;;;;;;;;;;;3.80;99.90;;;;;;4997446;28;19938;-80
2022/01/29 08:14:10;;;;;;;;;;;3.80;99.90;;;;;;4837302;29;19929;-83
2022/01/29 08:16:36;;;;;;;;;;;3.80;99.90;;;;;;4670151;30;19939;-80
2022/01/29 08:24:09;;;;;;;;;;;3.80;99.90;;;;;;5156707;27;19926;-79
2022/01/29 08:26:36;;;;;;;;;;;3.90;99.90;;;;;;5108049;27;19923;-84
2022/01/29 08:29:02;;;;;;;;;;;3.90;99.90;;;;;;5097077;28;19932;-80
2022/01/29 08:31:29;;;;;;;;;;;3.90;99.90;;;;;;5034152;28;19926;-84
2022/01/29 08:33:56;;;;;;;;;;;3.90;99.90;;;;;;4932000;28;19927;-83
2022/01/29 08:36:22;;;;;;;;;;;3.90;99.90;;;;;;4818924;29;19932;-84
2022/01/29 08:38:49;;;;;;;;;;;3.90;99.90;;;;;;4496301;30;19937;-82
2022/01/29 08:45:40;;;;;;;;;;;3.90;99.90;;;;;;5173612;27;19930;-81
2022/01/29 08:48:07;;;;;;;;;;;4.00;99.90;;;;;;5136933;27;19930;-82
2022/01/29 08:50:33;;;;;;;;;;;4.00;99.90;;;;;;5123167;27;19931;-81
2022/01/29 08:53:00;;;;;;;;;;;4.00;99.90;;;;;;5103403;28;19925;-81
2022/01/29 08:55:27;;;;;;;;;;;4.00;99.90;;;;;;5025183;28;19925;-82
2022/01/29 08:57:54;;;;;;;;;;;4.00;99.90;;;;;;4878599;29;19929;-84
2022/01/29 09:00:20;;;;;;;;;;;4.10;99.90;;;;;;4697219;29;19935;-82
2022/01/29 09:07:52;;;;;;;;;;;4.10;99.90;;;;;;5177903;27;19925;-81
2022/01/29 09:10:18;;;;;;;;;;;4.20;99.90;;;;;;5142822;27;19927;-82
2022/01/29 09:12:45;;;;;;;;;;;4.20;99.90;;;;;;5124388;27;19931;-81
2022/01/29 09:15:12;;;;;;;;;;;4.20;99.90;;;;;;5096040;28;19931;-81
2022/01/29 09:17:40;;;;;;;;;;;4.30;99.90;;;;;;5026754;28;19926;-80
2022/01/29 09:20:08;;;;;;;;;;;4.30;99.90;;;;;;4828977;29;19939;-81
2022/01/29 09:22:35;;;;;;;;;;;4.40;99.90;;;;;;4558374;30;19937;-83
2022/01/29 09:30:07;;;;;;;;;;;4.50;99.90;;;;;;5174222;27;19941;-83
2022/01/29 09:32:34;;;;;;;;;;;4.50;99.90;;;;;;5147413;27;19935;-87
2022/01/29 09:35:01;;;;;;;;;;;4.60;99.90;;;;;;5150968;27;19923;-85
2022/01/29 09:37:28;;;;;;;;;;;4.60;99.90;;;;;;5121714;28;19927;-86
2022/01/29 09:39:55;;;;;;;;;;;4.70;99.90;;;;;;5026771;28;19927;-81
2022/01/29 09:42:21;;;;;;;;;;;4.70;99.90;;;;;;4802178;29;19944;-79
2022/01/29 09:44:48;;;;;;;;;;;4.70;99.90;;;;;;4755984;29;19943;-80
2022/01/29 09:52:21;;;;;;;;;;;4.80;99.90;;;;;;5178669;27;19926;-83
2022/01/29 09:54:49;;;;;;;;;;;4.80;99.90;;;;;;5109840;27;19923;-83
2022/01/29 09:57:16;;;;;;;;;;;4.90;99.90;;;;;;5104570;27;19931;-81
2022/01/29 09:59:42;;;;;;;;;;;4.90;99.90;;;;;;5090183;28;19928;-81
2022/01/29 10:02:16;;;;;;;;;;;4.90;99.90;;;;;;5002853;28;19937;-81
2022/01/29 10:04:47;;;;;;;;;;;5.00;99.90;;;;;;4799773;29;19936;-81
2022/01/29 10:07:14;;;;;;;;;;;5.10;99.90;;;;;;4594277;30;19936;-79
2022/01/29 10:14:46;;;;;;;;;;;5.20;99.90;;;;;;5169504;27;19926;-79
2022/01/29 10:17:12;;;;;;;;;;;5.20;99.90;;;;;;5098115;28;19923;-81
2022/01/29 10:19:39;;;;;;;;;;;5.30;99.90;;;;;;5088656;28;19931;-78
2022/01/29 10:22:06;;;;;;;;;;;5.40;99.90;;;;;;5027396;28;19926;-81
2022/01/29 10:24:32;;;;;;;;;;;5.40;99.90;;;;;;4896123;28;19932;-79
2022/01/29 10:27:06;;;;;;;;;;;5.40;99.90;;;;;;4840125;29;19937;-81
2022/01/29 10:29:35;;;;;;;;;;;5.50;99.90;;;;;;4627575;30;19935;-80
2022/01/29 10:37:13;;;;;;;;;;;5.60;99.90;;;;;;5174201;27;19925;-82
2022/01/29 10:39:40;;;;;;;;;;;5.60;99.90;;;;;;5115198;27;19923;-80
2022/01/29 10:42:13;;;;;;;;;;;5.70;99.90;;;;;;5097562;28;19924;-81
2022/01/29 10:44:41;;;;;;;;;;;5.70;99.90;;;;;;5039707;28;19925;-81
2022/01/29 10:47:08;;;;;;;;;;;5.70;99.90;;;;;;4932723;28;19928;-82
2022/01/29 10:49:37;;;;;;;;;;;5.80;99.90;;;;;;4794284;29;19930;-84
2022/01/29 10:52:04;;;;;;;;;;;5.80;99.90;;;;;;4571052;30;19942;-82
2022/01/29 10:59:38;;;;;;;;;;;5.90;99.90;;;;;;5161906;27;19926;-80
2022/01/29 11:02:08;;;;;;;;;;;6.00;99.90;;;;;;5091422;28;19932;-83
2022/01/29 11:04:35;;;;;;;;;;;6.00;99.90;;;;;;5062361;28;19932;-83
2022/01/29 11:07:06;;;;;;;;;;;6.00;99.90;;;;;;5029486;28;19925;-81
2022/01/29 11:09:33;;;;;;;;;;;6.00;99.90;;;;;;4974892;28;19935;-81
2022/01/29 11:12:02;;;;;;;;;;;6.10;99.90;;;;;;4801628;29;19936;-79
2022/01/29 11:14:30;;;;;;;;;;;6.10;99.90;;;;;;4516168;30;19959;-82
2022/01/29 11:21:19;;;;;;;;;;;6.20;99.90;;;;;;5169520;27;19927;-84
2022/01/29 11:23:46;;;;;;;;;;;6.30;99.90;;;;;;5118870;27;19923;-82
2022/01/29 11:26:12;;;;;;;;;;;6.30;99.90;;;;;;5097428;28;19939;-82
2022/01/29 11:28:39;;;;;;;;;;;6.40;99.90;;;;;;5078996;28;19925;-82
2022/01/29 11:31:20;;;;;;;;;;;6.40;99.90;;;;;;5033343;28;19933;-84
2022/01/29 11:34:08;;;;;;;;;;;6.40;99.90;;;;;;4919473;29;19928;-81
2022/01/29 11:36:49;;;;;;;;;;;6.50;99.90;;;;;;4522396;30;19945;-81
2022/01/29 11:44:27;;;;;;;;;;;6.60;99.90;;;;;;5182319;27;19933;-81
2022/01/29 11:46:54;;;;;;;;;;;6.60;99.90;;;;;;5144256;27;19931;-82
2022/01/29 11:49:21;;;;;;;;;;;6.60;99.90;;;;;;5146877;27;19938;-82
2022/01/29 11:51:49;;;;;;;;;;;6.70;99.90;;;;;;5135044;28;19924;-80
2022/01/29 11:54:18;;;;;;;;;;;6.70;99.90;;;;;;5086264;28;19936;-81
2022/01/29 11:56:45;;;;;;;;;;;6.70;99.90;;;;;;4958327;28;19928;-83
2022/01/29 11:59:30;;;;;;;;;;;6.70;99.90;;;;;;4701221;29;19933;-81
2022/01/29 12:07:11;;;;;;;;;;;6.80;99.90;;;;;;5174569;27;19942;-83
2022/01/29 12:09:45;;;;;;;;;;;6.90;99.90;;;;;;5109911;27;19924;-89
2022/01/29 12:12:19;;;;;;;;;;;6.90;99.90;;;;;;5105984;28;19924;-81
2022/01/29 12:14:47;;;;;;;;;;;6.90;99.90;;;;;;5066260;28;19932;-83
2022/01/29 12:17:28;;;;;;;;;;;6.90;99.90;;;;;;4955397;28;19943;-82
2022/01/29 12:19:58;;;;;;;;;;;7.00;99.90;;;;;;4788093;29;19935;-83
2022/01/29 12:25:19;;;;;;;;;;;7.10;99.90;;;;;;5174703;27;19941;-82
2022/01/29 12:27:47;;;;;;;;;;;7.10;99.90;;;;;;5114672;27;19924;-84
2022/01/29 12:30:15;;;;;;;;;;;7.10;99.90;;;;;;5094438;27;19978;-84
2022/01/29 12:32:54;;;;;;;;;;;7.10;99.90;;;;;;5104906;27;19923;-83
2022/01/29 12:35:21;;;;;;;;;;;7.20;99.90;;;;;;5053897;28;19926;-83
2022/01/29 12:37:52;;;;;;;;;;;7.20;99.90;;;;;;4876974;28;19936;-81
2022/01/29 12:40:22;;;;;;;;;;;7.30;99.90;;;;;;4526507;30;19938;-82
2022/01/29 12:47:24;;;;;;;;;;;7.40;99.90;;;;;;5173576;27;19926;-85
2022/01/29 12:49:51;;;;;;;;;;;7.40;99.90;;;;;;5116200;27;19924;-84
2022/01/29 12:52:18;;;;;;;;;;;7.40;99.90;;;;;;5091575;28;19925;-83
2022/01/29 12:54:50;;;;;;;;;;;7.40;99.90;;;;;;5032396;28;19933;-83
2022/01/29 12:57:17;;;;;;;;;;;7.50;99.90;;;;;;4912201;28;19929;-83
2022/01/29 12:59:43;;;;;;;;;;;7.50;99.90;;;;;;4780588;29;19937;-84
2022/01/29 13:02:10;;;;;;;;;;;7.60;99.90;;;;;;4636728;30;19935;-88
2022/01/29 13:09:12;;;;;;;;;;;7.80;99.90;;;;;;5177387;27;19926;-90
2022/01/29 13:11:39;;;;;;;;;;;7.80;99.90;;;;;;5116226;27;19924;-85
2022/01/29 13:14:10;;;;;;;;;;;7.90;99.90;;;;;;5113003;27;19931;-90
2022/01/29 13:16:37;;;;;;;;;;;7.90;99.90;;;;;;5057974;28;19914;-86
2022/01/29 13:19:04;;;;;;;;;;;8.00;99.90;;;;;;5003081;28;19925;-82
2022/01/29 13:21:32;;;;;;;;;;;8.00;99.90;;;;;;4909359;28;19929;-83
2022/01/29 13:23:59;;;;;;;;;;;8.00;99.90;;;;;;4591707;30;19934;-82
2022/01/29 13:31:43;;;;;;;;;;;8.10;99.90;;;;;;5171964;27;19926;-81
2022/01/29 13:34:24;;;;;;;;;;;8.20;99.90;;;;;;5118177;28;19951;-82
2022/01/29 13:36:51;;;;;;;;;;;8.20;99.90;;;;;;5070922;28;19925;-85
2022/01/29 13:39:19;;;;;;;;;;;8.30;99.90;;;;;;5019961;28;19932;-82
2022/01/29 13:41:45;;;;;;;;;;;8.30;99.90;;;;;;4914373;29;19927;-83
2022/01/29 13:44:12;;;;;;;;;;;8.30;99.90;;;;;;4737459;29;19932;-81
2022/01/29 13:46:39;;;;;;;;;;;8.40;99.90;;;;;;4538658;30;19935;-81
2022/01/29 13:54:08;;;;;;;;;;;8.40;99.90;;;;;;5182615;27;19925;-82
2022/01/29 13:56:36;;;;;;;;;;;8.50;99.90;;;;;;5116173;27;19931;-82
2022/01/29 13:59:03;;;;;;;;;;;8.50;99.90;;;;;;5094537;27;19923;-83
2022/01/29 14:01:34;;;;;;;;;;;8.50;99.90;;;;;;5089103;28;19924;-82
2022/01/29 14:04:01;;;;;;;;;;;8.60;99.90;;;;;;4992484;28;19936;-82
2022/01/29 14:06:32;;;;;;;;;;;8.50;99.90;;;;;;4787000;29;19935;-84
2022/01/29 14:09:23;;;;;;;;;;;8.50;99.90;;;;;;4618406;30;19938;-83
2022/01/29 14:16:59;;;;;;;;;;;8.60;99.90;;;;;;5187163;27;19925;-81
2022/01/29 14:19:28;;;;;;;;;;;8.60;99.90;;;;;;5117871;28;19924;-84
2022/01/29 14:21:57;;;;;;;;;;;8.60;99.90;;;;;;5107590;28;19997;-84
2022/01/29 14:24:24;;;;;;;;;;;8.70;99.90;;;;;;5067202;28;19925;-83
2022/01/29 14:26:51;;;;;;;;;;;8.60;99.90;;;;;;4939243;28;19928;-83
2022/01/29 14:29:18;;;;;;;;;;;8.70;99.90;;;;;;4717250;29;19933;-85
2022/01/29 14:31:44;;;;;;;;;;;8.70;99.90;;;;;;4508086;31;19941;-82
2022/01/29 14:36:58;;;;;;;;;;;8.60;99.90;;;;;;5175861;27;19926;-81
2022/01/29 14:39:25;;;;;;;;;;;8.60;99.90;;;;;;5126002;27;19924;-81
2022/01/29 14:41:53;;;;;;;;;;;8.60;99.90;;;;;;5126473;28;19927;-80
2022/01/29 14:44:20;;;;;;;;;;;8.60;99.90;;;;;;5065693;28;19921;-81
2022/01/29 14:46:46;;;;;;;;;;;8.60;99.90;;;;;;4981427;28;19927;-83
2022/01/29 14:49:13;;;;;;;;;;;8.60;99.90;;;;;;4798691;29;19937;-82
2022/01/29 14:51:42;;;;;;;;;;;8.60;99.90;;;;;;4565653;30;19955;-84
2022/01/29 14:58:38;;;;;;;;;;;8.40;99.90;;;;;;5172320;27;19926;-84
2022/01/29 15:01:05;;;;;;;;;;;8.30;99.90;;;;;;5119153;27;19923;-84
2022/01/29 15:03:32;;;;;;;;;;;8.30;99.90;;;;;;5070458;28;19932;-86
2022/01/29 15:05:59;;;;;;;;;;;8.30;99.90;;;;;;5040271;28;19989;-85
2022/01/29 15:08:25;;;;;;;;;;;8.30;99.90;;;;;;4947161;28;19935;-82
2022/01/29 15:10:52;;;;;;;;;;;8.30;99.90;;;;;;4774048;29;19944;-85
2022/01/29 15:13:19;;;;;;;;;;;8.30;99.90;;;;;;4501458;30;19939;-83
2022/01/29 15:20:08;;;;;;;;;;;8.40;99.90;;;;;;5174402;27;19925;-84
2022/01/29 15:22:35;;;;;;;;;;;8.50;99.90;;;;;;5144628;27;19924;-83
2022/01/29 15:25:02;;;;;;;;;;;8.50;99.90;;;;;;5134226;27;19923;-84
2022/01/29 15:27:29;;;;;;;;;;;8.60;99.90;;;;;;5116618;28;19928;-83
2022/01/29 15:29:56;;;;;;;;;;;8.60;99.90;;;;;;5036136;28;19945;-82
2022/01/29 15:32:22;;;;;;;;;;;8.60;99.90;;;;;;4869553;28;19929;-83
2022/01/29 15:34:49;;;;;;;;;;;8.70;99.90;;;;;;4693968;29;19932;-86
2022/01/29 15:42:20;;;;;;;;;;;8.70;99.90;;;;;;5159955;27;19931;-83
2022/01/29 15:44:47;;;;;;;;;;;8.70;99.90;;;;;;5096805;27;19924;-82
2022/01/29 15:47:14;;;;;;;;;;;8.60;99.90;;;;;;5095380;28;19939;-85
2022/01/29 15:49:40;;;;;;;;;;;8.70;99.90;;;;;;5063001;28;19925;-81
2022/01/29 15:52:07;;;;;;;;;;;8.70;99.90;;;;;;4980816;28;19934;-81
2022/01/29 15:54:34;;;;;;;;;;;8.70;99.90;;;;;;4793767;29;19931;-82
2022/01/29 15:57:00;;;;;;;;;;;8.70;99.90;;;;;;4566752;30;19936;-81
2022/01/29 16:04:32;;;;;;;;;;;8.90;99.90;;;;;;5184507;27;19925;-82
2022/01/29 16:07:00;;;;;;;;;;;8.90;99.90;;;;;;5149829;27;19923;-82
2022/01/29 16:09:27;;;;;;;;;;;9.00;99.90;;;;;;5166379;27;19930;-85
2022/01/29 16:11:54;;;;;;;;;;;9.00;99.90;;;;;;5108294;28;19932;-84
2022/01/29 16:14:23;;;;;;;;;;;9.10;99.90;;;;;;5066333;28;19936;-84
2022/01/29 16:16:50;;;;;;;;;;;9.10;99.90;;;;;;4906822;28;19935;-84
2022/01/29 16:19:17;;;;;;;;;;;9.20;99.90;;;;;;4706109;29;19940;-86
2022/01/29 16:26:49;;;;;;;;;;;9.20;99.90;;;;;;5176179;27;19926;-85
2022/01/29 16:29:15;;;;;;;;;;;9.10;99.90;;;;;;5133881;27;19924;-83
2022/01/29 16:31:42;;;;;;;;;;;9.00;99.90;;;;;;5104611;28;19960;-86
2022/01/29 16:34:10;;;;;;;;;;;9.00;99.90;;;;;;5036409;28;19926;-86
2022/01/29 16:36:37;;;;;;;;;;;8.90;99.90;;;;;;4974567;28;19927;-85
2022/01/29 16:39:04;;;;;;;;;;;8.90;99.90;;;;;;4867107;29;19929;-88
2022/01/29 16:41:31;;;;;;;;;;;8.90;99.90;;;;;;4697135;29;19935;-85
2022/01/29 16:49:03;;;;;;;;;;;8.90;99.90;;;;;;5190001;27;19925;-82
2022/01/29 16:51:30;;;;;;;;;;;8.80;99.90;;;;;;5140745;27;19924;-82
2022/01/29 16:53:57;;;;;;;;;;;8.80;99.90;;;;;;5116556;27;19935;-85
2022/01/29 16:56:25;;;;;;;;;;;8.80;99.90;;;;;;5066538;28;19925;-84
2022/01/29 16:58:51;;;;;;;;;;;8.70;99.90;;;;;;4957317;28;19928;-83
2022/01/29 17:01:18;;;;;;;;;;;8.70;99.90;;;;;;4786651;29;19930;-84
2022/01/29 17:03:50;;;;;;;;;;;8.70;99.90;;;;;;4565225;30;19943;-90
2022/01/29 17:09:02;;;;;;;;;;;8.60;99.90;;;;;;5165853;27;19930;-84
2022/01/29 17:11:33;;;;;;;;;;;8.50;99.90;;;;;;5116644;28;19934;-81
2022/01/29 17:14:03;;;;;;;;;;;8.50;99.90;;;;;;5064804;28;19924;-81
2022/01/29 17:16:30;;;;;;;;;;;8.50;99.90;;;;;;5071570;28;19925;-81
2022/01/29 17:18:58;;;;;;;;;;;8.40;99.90;;;;;;5021288;28;19941;-83
2022/01/29 17:21:24;;;;;;;;;;;8.50;99.90;;;;;;4863580;29;19930;-81
2022/01/29 17:23:51;;;;;;;;;;;8.50;99.90;;;;;;4617861;30;19942;-82
2022/01/29 17:31:15;;;;;;;;;;;8.50;99.90;;;;;;5180447;27;19926;-79
2022/01/29 17:33:41;;;;;;;;;;;8.60;99.90;;;;;;5129938;27;19931;-80
2022/01/29 17:36:09;;;;;;;;;;;8.60;99.90;;;;;;5100578;27;19927;-84
2022/01/29 17:38:36;;;;;;;;;;;8.60;99.90;;;;;;5110135;28;19924;-81
2022/01/29 17:41:03;;;;;;;;;;;8.70;99.90;;;;;;5022788;28;19926;-83
2022/01/29 17:43:30;;;;;;;;;;;8.70;99.90;;;;;;4853917;29;19928;-82
2022/01/29 17:45:57;;;;;;;;;;;8.80;99.90;;;;;;4652766;29;19942;-81
2022/01/29 17:53:29;;;;;;;;;;;8.80;99.90;;;;;;5159650;27;19925;-84
2022/01/29 17:55:56;;;;;;;;;;;8.80;99.90;;;;;;5107908;28;19924;-81
2022/01/29 17:58:24;;;;;;;;;;;8.90;99.90;;;;;;5125548;27;19938;-80
2022/01/29 18:00:53;;;;;;;;;;;8.90;99.90;;;;;;5112489;28;19924;-80
2022/01/29 18:03:19;;;;;;;;;;;8.90;99.90;;;;;;5015028;28;19927;-84
2022/01/29 18:05:46;;;;;;;;;;;8.90;99.90;;;;;;4822791;29;19937;-81
2022/01/29 18:08:13;;;;;;;;;;;8.90;99.90;;;;;;4688896;30;19939;-81
2022/01/29 18:13:45;;;;;;;;;;;9.00;99.90;;;;;;5155702;27;19927;-80
2022/01/29 18:16:11;;;;;;;;;;;9.00;99.90;;;;;;5096777;28;19924;-82
2022/01/29 18:18:38;;;;;;;;;;;9.10;99.90;;;;;;5082897;28;19925;-80
2022/01/29 18:21:05;;;;;;;;;;;9.10;99.90;;;;;;5031725;28;19925;-82
2022/01/29 18:23:32;;;;;;;;;;;9.00;99.90;;;;;;4972089;28;19926;-86
2022/01/29 18:26:03;;;;;;;;;;;9.10;99.90;;;;;;4837426;29;19930;-82
2022/01/29 18:28:30;;;;;;;;;;;9.20;99.90;;;;;;4584656;30;19934;-84
2022/01/29 18:36:05;;;;;;;;;;;9.20;99.90;;;;;;5177431;27;19926;-83
2022/01/29 18:38:32;;;;;;;;;;;9.30;99.90;;;;;;5123558;27;19924;-85
2022/01/29 18:40:58;;;;;;;;;;;9.30;99.90;;;;;;5137272;27;19928;-81